Time;durP1;ratioP1;P1;durP2;ratioP2;P2;SDS_P1;SDS_P2;PMS_P1;PMS_P2;Temp;Humidity;BMP_temperature;BMP_pressure;BME280_temperature;BME280_humidity;BME280_pressure;Samples;Min_cycle;Max_cycle;Signal;HPM_P1;HPM_P2
2022/09/24 00:01:11;;;;;;;31.92;18.75;;;8.30;99.90;;;;;;5032210;28;20025;-68
2022/09/24 00:03:38;;;;;;;32.40;19.30;;;8.30;99.90;;;;;;5032108;28;20025;-69
2022/09/24 00:06:05;;;;;;;30.13;18.27;;;8.30;99.90;;;;;;5034379;28;20057;-68
2022/09/24 00:08:32;;;;;;;30.52;20.15;;;8.30;99.90;;;;;;5046898;28;20030;-68
2022/09/24 00:11:04;;;;;;;35.72;22.73;;;8.30;99.90;;;;;;5032134;28;20487;-67
2022/09/24 00:13:31;;;;;;;42.03;24.42;;;8.30;99.90;;;;;;5031851;28;20486;-68
2022/09/24 00:16:03;;;;;;;26.40;18.38;;;8.30;99.90;;;;;;5032148;28;20052;-68
2022/09/24 00:18:29;;;;;;;29.27;18.77;;;8.30;99.90;;;;;;5031975;28;20424;-69
2022/09/24 00:20:55;;;;;;;30.92;19.40;;;8.30;99.90;;;;;;5032040;28;20025;-69
2022/09/24 00:23:21;;;;;;;31.52;19.48;;;8.30;99.90;;;;;;5031753;28;20053;-68
2022/09/24 00:28:32;;;;;;;28.50;18.02;;;8.30;99.90;;;;;;5031692;28;20140;-68
2022/09/24 00:31:02;;;;;;;28.55;20.27;;;8.30;99.90;;;;;;5031980;28;20037;-68
2022/09/24 00:33:28;;;;;;;27.48;17.23;;;8.30;99.90;;;;;;5034492;28;20037;-68
2022/09/24 00:36:03;;;;;;;26.40;17.88;;;8.30;99.90;;;;;;5034823;28;20037;-69
2022/09/24 00:38:31;;;;;;;31.88;19.45;;;8.20;99.90;;;;;;5034825;28;20056;-67
2022/09/24 00:40:58;;;;;;;32.80;18.35;;;8.20;99.90;;;;;;5027290;28;20779;-68
2022/09/24 00:43:33;;;;;;;26.95;17.58;;;8.30;99.90;;;;;;5042859;28;20030;-67
2022/09/24 00:46:32;;;;;;;30.67;18.48;;;8.30;99.90;;;;;;5035192;28;20025;-67
2022/09/24 00:49:09;;;;;;;30.92;17.63;;;8.30;99.90;;;;;;5035035;28;20041;-69
2022/09/24 00:51:35;;;;;;;30.77;18.92;;;8.30;99.90;;;;;;5034951;28;20069;-69
2022/09/24 00:54:06;;;;;;;27.67;17.00;;;8.40;99.90;;;;;;5034962;28;20052;-68
2022/09/24 00:56:35;;;;;;;26.08;14.73;;;8.40;99.90;;;;;;5034957;28;20057;-67
2022/09/24 00:59:02;;;;;;;25.30;15.00;;;8.40;99.90;;;;;;5034833;28;20032;-70
2022/09/24 01:01:28;;;;;;;25.85;14.65;;;8.40;99.90;;;;;;5034889;28;20032;-70
2022/09/24 01:03:56;;;;;;;25.35;16.38;;;8.40;99.90;;;;;;5034558;28;20028;-66
2022/09/24 01:06:26;;;;;;;26.85;16.13;;;8.40;99.90;;;;;;5035668;28;20057;-68
2022/09/24 01:08:55;;;;;;;28.55;16.17;;;8.40;99.90;;;;;;5046870;28;20034;-69
2022/09/24 01:11:29;;;;;;;29.50;17.80;;;8.40;99.90;;;;;;5034527;28;20100;-67
2022/09/24 01:14:04;;;;;;;30.70;17.10;;;8.40;99.90;;;;;;5035086;28;20108;-68
2022/09/24 01:16:54;;;;;;;32.78;19.77;;;8.40;99.90;;;;;;5034525;28;20038;-69
2022/09/24 01:19:36;;;;;;;27.27;16.10;;;8.40;99.90;;;;;;5034206;28;20037;-69
2022/09/24 01:22:27;;;;;;;24.15;16.38;;;8.40;99.90;;;;;;5034565;28;20092;-68
2022/09/24 01:25:12;;;;;;;34.85;20.92;;;8.40;99.90;;;;;;4983689;28;20039;-69
2022/09/24 01:27:38;;;;;;;32.60;20.95;;;8.40;99.90;;;;;;4991006;28;20031;-69
2022/09/24 01:30:14;;;;;;;28.80;18.55;;;8.30;99.90;;;;;;4980745;28;20035;-67
2022/09/24 01:32:52;;;;;;;27.73;17.92;;;8.30;99.90;;;;;;4982750;28;20026;-67
2022/09/24 01:35:56;;;;;;;30.55;17.08;;;8.40;99.90;;;;;;4971992;28;20139;-67
2022/09/24 01:38:28;;;;;;;27.83;18.70;;;8.30;99.90;;;;;;4971182;28;20035;-68
2022/09/24 01:40:58;;;;;;;29.10;17.88;;;8.30;99.90;;;;;;4971744;28;20074;-69
2022/09/24 01:43:27;;;;;;;34.35;18.45;;;8.20;99.90;;;;;;4969896;28;20038;-69
2022/09/24 01:45:57;;;;;;;30.50;18.40;;;8.10;99.90;;;;;;4971529;28;20098;-68
2022/09/24 01:48:24;;;;;;;27.83;19.52;;;8.10;99.90;;;;;;4971200;28;20042;-69
2022/09/24 01:51:05;;;;;;;27.38;17.60;;;8.10;99.90;;;;;;4971299;28;20432;-69
2022/09/24 01:53:39;;;;;;;28.95;18.75;;;8.00;99.90;;;;;;4970259;28;20034;-69
2022/09/24 01:56:12;;;;;;;30.08;18.17;;;8.00;99.90;;;;;;4989690;28;20050;-69
2022/09/24 01:58:54;;;;;;;26.85;16.80;;;8.00;99.90;;;;;;4985443;28;20035;-66
2022/09/24 02:01:46;;;;;;;26.98;17.23;;;8.00;99.90;;;;;;4967465;28;20036;-67
2022/09/24 02:04:16;;;;;;;27.67;17.83;;;7.90;99.90;;;;;;4958798;28;20044;-69
2022/09/24 02:06:46;;;;;;;30.23;18.73;;;7.90;99.90;;;;;;4954008;28;20500;-69
2022/09/24 02:09:33;;;;;;;27.10;17.15;;;7.80;99.90;;;;;;4951795;28;20035;-68
2022/09/24 02:12:28;;;;;;;29.13;17.05;;;7.80;99.90;;;;;;4951805;28;21781;-68
2022/09/24 02:15:16;;;;;;;24.27;15.82;;;7.80;99.90;;;;;;4955925;28;20070;-68
2022/09/24 02:17:47;;;;;;;25.10;15.48;;;7.70;99.90;;;;;;4952624;28;20541;-66
2022/09/24 02:20:18;;;;;;;29.10;17.25;;;7.60;99.90;;;;;;4953322;28;20031;-65
2022/09/24 02:22:46;;;;;;;29.48;19.63;;;7.60;99.90;;;;;;4954186;28;20466;-68
2022/09/24 02:25:17;;;;;;;29.85;17.88;;;7.60;99.90;;;;;;4951844;28;20091;-68
2022/09/24 02:27:43;;;;;;;35.58;20.25;;;7.60;99.90;;;;;;4963468;28;20498;-69
2022/09/24 02:30:09;;;;;;;29.98;17.50;;;7.60;99.90;;;;;;4973360;28;20154;-69
2022/09/24 02:32:37;;;;;;;28.73;17.25;;;7.50;99.90;;;;;;4972676;28;20042;-68
2022/09/24 02:35:06;;;;;;;27.27;18.42;;;7.50;99.90;;;;;;4972202;28;20446;-69
2022/09/24 02:37:41;;;;;;;28.27;18.45;;;7.50;99.90;;;;;;4972328;28;20106;-67
2022/09/24 02:40:10;;;;;;;26.67;15.32;;;7.60;99.90;;;;;;4975521;28;20031;-67
2022/09/24 02:42:36;;;;;;;29.25;16.17;;;7.50;99.90;;;;;;5032681;28;20030;-68
2022/09/24 02:45:04;;;;;;;25.80;15.38;;;7.50;99.90;;;;;;5031437;28;20025;-67
2022/09/24 02:47:30;;;;;;;29.35;18.85;;;7.40;99.90;;;;;;5031390;28;20049;-68
2022/09/24 02:49:56;;;;;;;25.23;15.73;;;7.40;99.90;;;;;;5031788;28;20088;-67
2022/09/24 02:52:22;;;;;;;27.13;16.10;;;7.40;99.90;;;;;;5031568;28;20025;-68
2022/09/24 02:54:51;;;;;;;27.33;16.77;;;7.40;99.90;;;;;;5031317;28;20030;-68
2022/09/24 02:57:18;;;;;;;25.08;17.83;;;7.40;99.90;;;;;;5031247;28;20025;-66
2022/09/24 02:59:45;;;;;;;29.55;18.42;;;7.40;99.90;;;;;;5030980;28;20022;-66
2022/09/24 03:02:11;;;;;;;29.70;18.90;;;7.40;99.90;;;;;;5031344;28;20029;-67
2022/09/24 03:04:37;;;;;;;31.23;20.67;;;7.40;99.90;;;;;;5031160;28;20022;-65
2022/09/24 03:07:03;;;;;;;78.22;27.05;;;7.30;99.90;;;;;;5037374;28;20048;-66
2022/09/24 03:09:29;;;;;;;101.25;30.27;;;7.30;99.90;;;;;;5034788;28;20044;-68
2022/09/24 03:11:59;;;;;;;53.88;28.67;;;7.40;99.90;;;;;;5032629;28;20038;-66
2022/09/24 03:14:25;;;;;;;47.47;28.10;;;7.40;99.90;;;;;;5032852;28;20380;-66
2022/09/24 03:16:51;;;;;;;43.85;26.25;;;7.40;99.90;;;;;;5032226;28;20022;-67
2022/09/24 03:19:16;;;;;;;40.63;27.08;;;7.50;99.90;;;;;;5032677;28;20032;-68
2022/09/24 03:21:42;;;;;;;59.67;27.40;;;7.50;99.90;;;;;;5032722;28;20022;-67
2022/09/24 03:24:08;;;;;;;50.53;28.50;;;7.60;99.90;;;;;;5031877;28;20116;-68
2022/09/24 03:26:34;;;;;;;40.03;27.05;;;7.60;99.90;;;;;;5031075;28;20100;-68
2022/09/24 03:28:59;;;;;;;46.00;27.55;;;7.60;99.90;;;;;;5046237;28;20024;-69
2022/09/24 03:31:25;;;;;;;41.42;23.33;;;7.60;99.90;;;;;;5048344;28;20037;-68
2022/09/24 03:33:51;;;;;;;37.67;23.92;;;7.60;99.90;;;;;;5050837;28;20479;-68
2022/09/24 03:36:24;;;;;;;35.70;20.75;;;7.60;99.90;;;;;;5051936;28;20037;-68
2022/09/24 03:38:55;;;;;;;;;;;7.60;99.90;;;;;;5052299;28;20056;-68
2022/09/24 03:41:22;;;;;;;38.53;21.90;;;7.50;99.90;;;;;;5051965;28;19908;-68
2022/09/24 03:43:48;;;;;;;70.47;26.77;;;7.40;99.90;;;;;;5051931;28;20013;-69
2022/09/24 03:46:15;;;;;;;51.65;24.55;;;7.40;99.90;;;;;;5051797;28;20111;-68
2022/09/24 03:48:41;;;;;;;35.42;20.70;;;7.40;99.90;;;;;;5051500;28;20013;-68
2022/09/24 03:51:17;;;;;;;32.58;22.13;;;7.40;99.90;;;;;;5048755;28;20091;-67
2022/09/24 03:53:43;;;;;;;38.00;21.30;;;7.40;99.90;;;;;;5047562;28;20071;-68
2022/09/24 03:56:10;;;;;;;33.63;21.08;;;7.40;99.90;;;;;;5047242;28;20025;-68
2022/09/24 03:58:37;;;;;;;31.27;20.42;;;7.40;99.90;;;;;;5043917;28;20013;-68
2022/09/24 04:01:05;;;;;;;33.97;21.77;;;7.40;99.90;;;;;;5033636;28;20036;-68
2022/09/24 04:03:31;;;;;;;38.15;23.15;;;7.40;99.90;;;;;;5031066;28;20025;-66
2022/09/24 04:05:56;;;;;;;32.40;22.27;;;7.40;99.90;;;;;;5030550;28;20093;-69
2022/09/24 04:08:22;;;;;;;33.60;21.33;;;7.30;99.90;;;;;;5034384;28;20044;-67
2022/09/24 04:10:49;;;;;;;32.60;21.67;;;7.30;99.90;;;;;;5050617;28;20040;-69
2022/09/24 04:13:16;;;;;;;32.20;20.73;;;7.30;99.90;;;;;;5055148;28;20025;-69
2022/09/24 04:15:42;;;;;;;31.98;23.48;;;7.30;99.90;;;;;;5055120;28;20082;-69
2022/09/24 04:18:08;;;;;;;38.03;26.90;;;7.30;99.90;;;;;;5055079;28;20471;-68
2022/09/24 04:20:34;;;;;;;42.88;28.08;;;7.30;99.90;;;;;;5054060;28;20114;-69
2022/09/24 04:23:00;;;;;;;40.75;25.45;;;7.30;99.90;;;;;;5055278;28;20048;-68
2022/09/24 04:25:29;;;;;;;37.00;23.45;;;7.30;99.90;;;;;;5054899;28;20021;-69
2022/09/24 04:27:57;;;;;;;40.10;24.13;;;7.20;99.90;;;;;;5055406;28;20040;-69
2022/09/24 04:30:25;;;;;;;34.03;21.45;;;7.20;99.90;;;;;;5051931;28;20030;-69
2022/09/24 04:32:51;;;;;;;33.55;21.58;;;7.20;99.90;;;;;;5054750;28;20361;-68
2022/09/24 04:35:18;;;;;;;35.17;20.15;;;7.20;99.90;;;;;;5054426;28;20083;-67
2022/09/24 04:37:44;;;;;;;34.03;22.60;;;7.20;99.90;;;;;;5054562;28;20021;-67
2022/09/24 04:40:11;;;;;;;36.65;21.25;;;7.20;99.90;;;;;;5054256;28;20025;-68
2022/09/24 04:42:38;;;;;;;31.02;19.70;;;7.20;99.90;;;;;;5054292;28;20037;-68
2022/09/24 04:45:08;;;;;;;33.15;20.45;;;7.20;99.90;;;;;;5036034;28;20072;-67
2022/09/24 04:47:35;;;;;;;31.65;19.20;;;7.20;99.90;;;;;;5054701;28;20109;-67
2022/09/24 04:50:03;;;;;;;28.05;16.83;;;7.30;99.90;;;;;;5054554;28;20021;-64
2022/09/24 04:52:31;;;;;;;27.40;17.92;;;7.40;99.90;;;;;;5050924;28;20040;-68
2022/09/24 04:55:00;;;;;;;30.75;18.73;;;7.50;99.90;;;;;;5051401;28;20115;-66
2022/09/24 04:57:28;;;;;;;25.70;16.65;;;7.70;99.90;;;;;;5051044;28;20025;-67
2022/09/24 04:59:54;;;;;;;29.30;17.08;;;7.70;99.90;;;;;;5049898;28;20095;-67
2022/09/24 05:02:20;;;;;;;26.90;15.95;;;7.80;99.90;;;;;;5050310;28;20020;-66
2022/09/24 05:04:46;;;;;;;27.55;17.45;;;7.80;99.90;;;;;;5050673;28;20040;-65
2022/09/24 05:07:12;;;;;;;36.78;22.88;;;7.90;99.90;;;;;;5052965;28;20487;-65
2022/09/24 05:09:38;;;;;;;31.10;19.27;;;8.10;99.90;;;;;;5053656;28;20032;-68
2022/09/24 05:12:04;;;;;;;32.30;20.65;;;8.20;99.90;;;;;;5050706;28;20052;-67
2022/09/24 05:14:30;;;;;;;34.95;20.80;;;8.30;99.90;;;;;;5050263;28;20025;-65
2022/09/24 05:16:56;;;;;;;32.65;21.17;;;8.60;99.90;;;;;;5054408;28;20032;-68
2022/09/24 05:19:22;;;;;;;48.47;25.95;;;8.90;99.90;;;;;;5052455;28;20096;-69
2022/09/24 05:21:49;;;;;;;44.38;27.25;;;9.10;99.90;;;;;;5034384;28;20057;-67
2022/09/24 05:24:14;;;;;;;41.72;24.75;;;9.30;99.90;;;;;;5033301;28;20021;-68
2022/09/24 05:29:25;;;;;;;32.22;21.10;;;10.60;99.90;;;;;;5032790;28;20516;-68
2022/09/24 05:31:51;;;;;;;33.80;18.10;;;11.60;99.90;;;;;;5050141;28;20048;-67
2022/09/24 05:34:17;;;;;;;26.02;17.27;;;12.10;99.90;;;;;;5049890;28;20029;-67
2022/09/24 05:36:43;;;;;;;23.95;15.63;;;12.60;99.90;;;;;;5046625;28;20471;-68
2022/09/24 05:39:11;;;;;;;26.10;15.63;;;12.90;99.90;;;;;;5038626;28;20036;-69
2022/09/24 05:41:38;;;;;;;24.27;15.35;;;13.00;99.90;;;;;;5050582;28;20482;-70
2022/09/24 05:44:04;;;;;;;27.13;14.48;;;13.40;99.90;;;;;;5053377;28;20025;-69
2022/09/24 05:46:31;;;;;;;26.45;14.35;;;12.80;99.90;;;;;;5053296;28;20545;-69
2022/09/24 05:48:58;;;;;;;26.48;15.88;;;11.90;99.90;;;;;;5052507;28;20035;-68
2022/09/24 05:51:24;;;;;;;25.27;15.30;;;11.60;99.90;;;;;;5047573;28;20036;-69
2022/09/24 05:53:50;;;;;;;24.23;15.57;;;11.30;99.90;;;;;;5053782;28;20027;-70
2022/09/24 05:56:16;;;;;;;26.27;16.67;;;11.20;99.90;;;;;;5047800;28;20096;-68
2022/09/24 05:58:42;;;;;;;24.90;15.88;;;10.90;99.90;;;;;;5033554;28;20091;-67
2022/09/24 06:01:08;;;;;;;27.77;16.38;;;10.80;99.90;;;;;;5034789;28;20033;-69
2022/09/24 06:03:34;;;;;;;32.17;21.77;;;11.00;99.90;;;;;;5050477;28;20013;-69
2022/09/24 06:06:01;;;;;;;31.77;21.50;;;11.10;99.90;;;;;;5032112;28;20045;-68
2022/09/24 06:08:29;;;;;;;31.33;20.90;;;10.50;99.90;;;;;;5049134;28;20027;-69
2022/09/24 06:11:05;;;;;;;31.48;20.67;;;10.50;99.90;;;;;;5050165;28;20044;-69
2022/09/24 06:13:33;;;;;;;32.53;20.83;;;10.80;99.90;;;;;;5050892;28;20118;-69
2022/09/24 06:16:04;;;;;;;33.15;22.63;;;11.00;99.90;;;;;;5048374;28;20064;-69
2022/09/24 06:18:32;;;;;;;39.17;24.73;;;11.20;99.90;;;;;;5052915;28;20476;-67
2022/09/24 06:21:06;;;;;;;34.15;22.90;;;11.30;99.90;;;;;;5048075;28;20360;-68
2022/09/24 06:23:34;;;;;;;31.90;22.85;;;11.40;99.90;;;;;;5053083;28;20032;-70
2022/09/24 06:26:00;;;;;;;32.97;21.55;;;11.50;99.90;;;;;;5033309;28;20491;-70
2022/09/24 06:28:26;;;;;;;32.08;23.15;;;11.60;99.90;;;;;;5033344;28;20040;-69
2022/09/24 06:30:52;;;;;;;37.72;24.00;;;11.80;99.90;;;;;;5032319;28;20033;-70
2022/09/24 06:33:22;;;;;;;36.05;22.40;;;11.80;99.90;;;;;;5041555;28;20375;-69
2022/09/24 06:35:48;;;;;;;35.38;24.35;;;12.10;99.90;;;;;;5037381;28;20084;-69
2022/09/24 06:38:16;;;;;;;38.80;24.75;;;12.20;99.90;;;;;;5032821;28;20034;-69
2022/09/24 06:40:49;;;;;;;37.75;22.83;;;12.40;99.90;;;;;;5032551;28;20495;-70
2022/09/24 06:43:16;;;;;;;34.88;22.25;;;12.40;99.90;;;;;;5019523;28;20057;-67
2022/09/24 06:45:43;;;;;;;35.33;25.33;;;12.50;99.90;;;;;;5033325;28;20436;-70
2022/09/24 06:48:12;;;;;;;39.42;22.30;;;12.50;99.90;;;;;;5032340;28;20022;-69
2022/09/24 06:50:43;;;;;;;38.28;20.08;;;12.40;99.90;;;;;;5032442;28;20404;-69
2022/09/24 06:53:10;;;;;;;27.20;18.88;;;12.70;99.90;;;;;;5032601;28;20108;-70
2022/09/24 06:55:37;;;;;;;26.50;18.08;;;12.70;99.90;;;;;;5032688;28;20025;-70
2022/09/24 06:58:05;;;;;;;24.00;13.50;;;12.70;99.90;;;;;;5032570;28;20384;-70
2022/09/24 07:00:31;;;;;;;23.25;14.75;;;12.80;99.90;;;;;;5032618;28;20108;-70
2022/09/24 07:02:57;;;;;;;27.13;15.38;;;13.00;99.90;;;;;;5032664;28;20115;-70
2022/09/24 07:05:22;;;;;;;17.58;11.80;;;12.80;99.90;;;;;;5028549;28;20028;-70
2022/09/24 07:07:48;;;;;;;23.27;12.25;;;13.00;99.90;;;;;;5037752;28;20045;-69
2022/09/24 07:10:15;;;;;;;19.08;11.18;;;13.00;99.90;;;;;;5050728;28;20115;-69
2022/09/24 07:12:41;;;;;;;18.52;11.45;;;13.00;99.90;;;;;;5046520;28;20040;-69
2022/09/24 07:15:08;;;;;;;22.38;11.85;;;13.10;99.90;;;;;;5051231;28;20029;-70
2022/09/24 07:17:34;;;;;;;24.92;12.18;;;13.50;99.90;;;;;;5050808;28;20108;-67
2022/09/24 07:20:00;;;;;;;18.02;11.15;;;13.30;99.90;;;;;;5044775;28;20108;-69
2022/09/24 07:22:26;;;;;;;28.02;13.45;;;13.80;99.90;;;;;;5050870;28;20036;-69
2022/09/24 07:24:51;;;;;;;17.90;11.38;;;13.90;99.90;;;;;;5051539;28;20075;-67
2022/09/24 07:27:20;;;;;;;18.45;11.50;;;13.60;99.90;;;;;;5032410;28;20108;-70
2022/09/24 07:29:46;;;;;;;20.52;10.70;;;13.70;99.90;;;;;;5042000;28;20017;-70
2022/09/24 07:32:14;;;;;;;19.13;10.48;;;13.80;99.90;;;;;;5033796;28;20053;-70
2022/09/24 07:34:40;;;;;;;17.27;10.73;;;13.90;99.90;;;;;;5031503;28;20029;-67
2022/09/24 07:37:05;;;;;;;12.35;8.05;;;14.30;99.90;;;;;;5031415;28;20028;-69
2022/09/24 07:39:32;;;;;;;14.20;7.95;;;14.60;99.90;;;;;;5037418;28;20418;-70
2022/09/24 07:42:00;;;;;;;14.55;7.65;;;14.90;99.90;;;;;;5040882;28;20025;-69
2022/09/24 07:44:26;;;;;;;9.98;6.80;;;15.20;99.90;;;;;;5050567;28;20026;-72
2022/09/24 07:46:52;;;;;;;13.05;8.07;;;14.40;99.90;;;;;;5041317;28;20025;-72
2022/09/24 07:49:18;;;;;;;11.82;7.88;;;14.70;99.90;;;;;;5043948;28;21199;-71
2022/09/24 07:51:44;;;;;;;10.00;6.28;;;15.00;99.90;;;;;;5034722;28;20045;-71
2022/09/24 07:54:10;;;;;;;10.43;7.07;;;15.20;99.90;;;;;;5035149;28;20021;-71
2022/09/24 07:56:36;;;;;;;21.25;7.45;;;15.50;99.90;;;;;;5035011;28;20037;-71
2022/09/24 07:59:05;;;;;;;14.27;7.70;;;15.70;99.90;;;;;;5042101;28;20029;-70
2022/09/24 08:01:32;;;;;;;10.93;6.68;;;15.90;99.90;;;;;;5051157;28;20464;-66
2022/09/24 08:03:59;;;;;;;13.68;8.18;;;16.00;99.90;;;;;;5029021;28;20033;-72
2022/09/24 08:06:25;;;;;;;21.63;13.95;;;16.10;99.90;;;;;;5046940;28;20455;-71
2022/09/24 08:08:51;;;;;;;27.05;14.82;;;16.20;99.90;;;;;;5047236;28;20036;-70
2022/09/24 08:11:19;;;;;;;26.13;14.45;;;16.40;99.90;;;;;;5022637;28;20499;-72
2022/09/24 08:13:45;;;;;;;20.05;12.63;;;16.60;99.10;;;;;;5048849;28;20044;-70
2022/09/24 08:16:11;;;;;;;24.23;10.68;;;16.70;99.40;;;;;;5054311;28;20424;-71
2022/09/24 08:18:38;;;;;;;19.85;10.75;;;16.60;96.60;;;;;;5050730;28;20027;-71
2022/09/24 08:21:06;;;;;;;22.02;10.13;;;16.60;93.80;;;;;;5053721;28;20025;-71
2022/09/24 08:23:33;;;;;;;23.08;10.13;;;16.50;93.70;;;;;;5054700;28;20536;-72
2022/09/24 08:25:59;;;;;;;19.30;11.70;;;16.60;94.90;;;;;;5043401;28;20493;-71
2022/09/24 08:28:25;;;;;;;32.83;11.60;;;16.90;95.70;;;;;;5045991;28;20009;-70
2022/09/24 08:30:51;;;;;;;18.65;10.93;;;17.10;95.30;;;;;;5053847;28;20483;-71
2022/09/24 08:33:17;;;;;;;19.75;12.35;;;17.30;94.20;;;;;;5054421;28;20016;-70
2022/09/24 08:35:42;;;;;;;20.77;11.57;;;17.50;94.00;;;;;;5052078;28;20029;-71
2022/09/24 08:38:08;;;;;;;18.98;11.32;;;17.60;93.40;;;;;;5051967;28;20017;-70
2022/09/24 08:40:44;;;;;;;20.98;11.57;;;17.70;92.00;;;;;;5042193;28;20072;-71
2022/09/24 08:43:13;;;;;;;28.40;12.43;;;17.10;91.40;;;;;;5033892;28;20030;-70
2022/09/24 08:48:37;;;;;;;21.42;11.52;;;17.40;92.50;;;;;;5033903;28;20045;-71
2022/09/24 08:51:11;;;;;;;18.90;11.02;;;17.20;92.80;;;;;;5035291;28;20048;-71
2022/09/24 08:53:46;;;;;;;22.45;11.57;;;17.50;95.70;;;;;;5036164;28;20026;-72
2022/09/24 08:56:25;;;;;;;19.73;11.95;;;17.60;92.90;;;;;;5034227;28;20057;-71
2022/09/24 08:58:58;;;;;;;19.52;11.25;;;17.60;92.30;;;;;;5047711;28;20060;-71
2022/09/24 09:01:29;;;;;;;15.95;9.65;;;17.80;95.00;;;;;;5040406;28;20026;-71
2022/09/24 09:04:10;;;;;;;20.65;10.27;;;17.90;94.50;;;;;;5034605;28;20057;-71
2022/09/24 09:06:49;;;;;;;17.05;11.93;;;18.10;93.20;;;;;;5035359;28;20051;-71
2022/09/24 09:09:23;;;;;;;25.73;12.85;;;18.20;95.30;;;;;;5044788;28;20037;-72
2022/09/24 09:11:56;;;;;;;15.40;9.40;;;18.50;93.50;;;;;;5035132;28;20039;-71
2022/09/24 09:14:42;;;;;;;17.98;11.13;;;18.70;90.20;;;;;;5034354;28;20072;-71
2022/09/24 09:17:33;;;;;;;17.73;10.90;;;18.60;93.60;;;;;;5034052;28;20125;-71
2022/09/24 09:20:05;;;;;;;32.30;12.35;;;18.40;91.40;;;;;;5035736;28;20025;-68
2022/09/24 09:22:38;;;;;;;38.00;11.38;;;18.40;92.70;;;;;;5034526;28;20034;-68
2022/09/24 09:25:23;;;;;;;38.88;10.90;;;18.50;90.90;;;;;;5034136;28;20022;-69
2022/09/24 09:28:13;;;;;;;185.68;33.17;;;18.80;91.10;;;;;;5034504;28;20037;-69
2022/09/24 09:31:18;;;;;;;81.43;17.90;;;18.80;89.90;;;;;;5030455;28;20438;-70
2022/09/24 09:34:28;;;;;;;80.90;21.52;;;19.00;86.40;;;;;;5033119;28;20551;-70
2022/09/24 09:37:09;;;;;;;10.07;5.75;;;19.00;86.90;;;;;;5026143;28;20041;-69
2022/09/24 09:39:38;;;;;;;148.57;51.88;;;19.10;88.00;;;;;;5033967;28;20017;-68
2022/09/24 09:42:25;;;;;;;51.33;15.73;;;19.20;98.00;;;;;;5033939;28;20067;-69
2022/09/24 09:44:51;;;;;;;16.98;5.82;;;19.20;99.90;;;;;;5033826;28;20037;-69
2022/09/24 09:47:42;;;;;;;48.03;12.82;;;19.30;99.90;;;;;;5033327;28;20104;-63
2022/09/24 09:50:27;;;;;;;61.05;13.80;;;19.50;99.90;;;;;;5039377;28;20490;-64
2022/09/24 09:52:54;;;;;;;8.38;5.07;;;19.60;99.90;;;;;;5033457;28;20041;-63
2022/09/24 09:55:30;;;;;;;16.30;6.25;;;19.50;99.90;;;;;;5034528;28;20881;-70
2022/09/24 09:58:15;;;;;;;19.35;5.82;;;19.60;99.90;;;;;;5023044;28;20025;-65
2022/09/24 10:00:41;;;;;;;9.98;4.57;;;19.60;99.90;;;;;;5032310;28;20510;-65
2022/09/24 10:03:25;;;;;;;8.20;3.65;;;19.70;99.90;;;;;;5032088;28;20021;-68
2022/09/24 10:05:54;;;;;;;11.43;4.45;;;19.70;99.90;;;;;;5027463;28;20072;-68
2022/09/24 10:08:24;;;;;;;7.03;3.50;;;19.60;99.90;;;;;;5036162;28;20095;-70
2022/09/24 10:10:55;;;;;;;10.27;5.70;;;19.60;99.90;;;;;;5038509;28;20360;-70
2022/09/24 10:13:21;;;;;;;5.40;3.55;;;19.50;99.90;;;;;;5033452;28;20021;-70
2022/09/24 10:15:56;;;;;;;6.25;3.88;;;19.70;99.90;;;;;;5032473;28;20164;-63
2022/09/24 10:18:45;;;;;;;7.45;3.00;;;19.80;99.90;;;;;;5032128;28;20033;-65
2022/09/24 10:21:23;;;;;;;14.70;3.38;;;19.90;99.90;;;;;;5032970;28;20054;-69
2022/09/24 10:23:50;;;;;;;7.88;4.57;;;20.10;99.90;;;;;;5021948;28;20407;-64
2022/09/24 10:26:16;;;;;;;8.02;4.00;;;20.10;99.90;;;;;;5047261;28;20022;-71
2022/09/24 10:31:37;;;;;;;6.88;3.90;;;20.30;99.90;;;;;;5031219;28;20383;-64
2022/09/24 10:34:16;;;;;;;19.88;8.98;;;20.30;99.90;;;;;;5047838;28;20036;-63
2022/09/24 10:36:56;;;;;;;11.88;6.35;;;20.20;99.90;;;;;;5039135;28;20120;-69
2022/09/24 10:39:22;;;;;;;10.25;3.95;;;20.20;99.90;;;;;;5037797;28;20108;-70
2022/09/24 10:41:53;;;;;;;29.55;7.75;;;20.30;99.90;;;;;;5032968;28;20100;-70
2022/09/24 10:44:20;;;;;;;19.08;5.00;;;20.30;99.90;;;;;;5032699;28;20056;-70
2022/09/24 10:46:57;;;;;;;10.15;4.18;;;20.00;99.90;;;;;;5028782;28;20053;-68
2022/09/24 10:49:57;;;;;;;15.80;5.35;;;20.30;99.90;;;;;;5031477;28;20104;-69
2022/09/24 10:52:29;;;;;;;11.15;3.83;;;20.20;99.90;;;;;;5036708;28;20064;-69
2022/09/24 10:55:13;;;;;;;6.80;3.78;;;20.20;99.90;;;;;;5039921;28;20396;-71
2022/09/24 10:57:58;;;;;;;12.13;4.47;;;20.10;99.90;;;;;;5043072;28;20029;-70
2022/09/24 11:00:36;;;;;;;9.57;6.93;;;20.00;99.90;;;;;;5050673;28;20025;-71
2022/09/24 11:03:24;;;;;;;6.75;4.10;;;20.10;99.90;;;;;;5037656;28;20476;-69
2022/09/24 11:05:59;;;;;;;5.30;3.70;;;20.10;99.90;;;;;;5045986;28;20593;-70
2022/09/24 11:08:31;;;;;;;11.55;4.85;;;20.20;99.90;;;;;;5039736;28;20025;-69
2022/09/24 11:11:38;;;;;;;7.80;3.20;;;20.20;99.90;;;;;;5043160;28;20482;-70
2022/09/24 11:14:27;;;;;;;5.38;3.22;;;20.30;99.90;;;;;;4981393;28;20039;-70
2022/09/24 11:17:24;;;;;;;6.20;3.38;;;20.20;99.90;;;;;;4981477;28;20048;-67
2022/09/24 11:20:13;;;;;;;5.40;3.20;;;20.10;99.90;;;;;;4988613;28;20488;-70
2022/09/24 11:22:52;;;;;;;5.93;3.03;;;20.00;99.90;;;;;;4980795;28;20771;-70
2022/09/24 11:25:23;;;;;;;7.65;2.90;;;20.10;99.90;;;;;;4974674;28;20104;-70
2022/09/24 11:28:07;;;;;;;6.33;2.90;;;20.00;99.90;;;;;;4980723;28;20374;-70
2022/09/24 11:30:55;;;;;;;800.47;160.13;;;20.00;99.90;;;;;;4970975;28;20307;-70
2022/09/24 11:33:48;;;;;;;36.03;8.63;;;20.20;99.90;;;;;;4951653;29;20039;-70
2022/09/24 11:36:41;;;;;;;19.35;5.47;;;20.20;99.90;;;;;;4961889;28;20027;-69
2022/09/24 11:39:25;;;;;;;30.83;6.50;;;20.40;99.90;;;;;;4952120;28;20040;-70
2022/09/24 11:41:59;;;;;;;7.28;2.85;;;20.40;99.90;;;;;;4952273;29;20058;-69
2022/09/24 11:44:42;;;;;;;15.40;4.50;;;20.50;99.90;;;;;;4952004;29;20031;-70
2022/09/24 11:47:15;;;;;;;6.55;3.05;;;20.60;99.90;;;;;;4951665;29;20043;-70
2022/09/24 11:49:56;;;;;;;8.55;3.55;;;20.40;99.90;;;;;;4952295;28;20035;-69
2022/09/24 11:52:54;;;;;;;4.43;2.00;;;20.40;99.90;;;;;;4971202;28;20045;-70
2022/09/24 11:55:30;;;;;;;7.97;3.40;;;20.50;99.90;;;;;;4971538;28;20060;-70
2022/09/24 11:58:19;;;;;;;5.25;3.25;;;20.60;99.90;;;;;;4971241;28;20086;-70
2022/09/24 12:00:54;;;;;;;10.38;4.88;;;20.50;99.90;;;;;;4974229;28;20034;-65
2022/09/24 12:03:24;;;;;;;6.28;2.95;;;20.50;99.90;;;;;;4980593;28;20153;-70
2022/09/24 12:05:55;;;;;;;5.90;3.00;;;20.40;99.90;;;;;;4970900;28;20058;-70
2022/09/24 12:08:31;;;;;;;4.15;2.47;;;20.50;99.90;;;;;;4984321;28;20038;-70
2022/09/24 12:11:40;;;;;;;4.55;2.80;;;20.50;99.90;;;;;;5013639;28;20071;-70
2022/09/24 12:14:21;;;;;;;6.03;2.70;;;20.50;99.90;;;;;;4951627;29;20043;-67
2022/09/24 12:16:52;;;;;;;3.60;2.30;;;20.60;99.90;;;;;;4951775;29;20023;-70
2022/09/24 12:19:29;;;;;;;4.03;2.35;;;20.70;99.90;;;;;;4952072;29;20122;-70
2022/09/24 12:21:57;;;;;;;2.63;2.15;;;20.90;99.90;;;;;;4951747;29;20035;-70
2022/09/24 12:24:28;;;;;;;2.92;2.17;;;21.00;99.90;;;;;;4951672;29;20070;-70
2022/09/24 12:26:56;;;;;;;5.05;2.70;;;21.00;99.90;;;;;;4951679;29;20039;-70
2022/09/24 12:32:55;;;;;;;14.23;3.90;;;21.00;99.90;;;;;;4955127;29;20043;-69
2022/09/24 12:35:44;;;;;;;3.83;1.92;;;20.80;99.90;;;;;;4926583;29;20048;-70
2022/09/24 12:38:27;;;;;;;7.07;3.63;;;20.90;99.90;;;;;;4955216;29;20043;-69
2022/09/24 12:41:11;;;;;;;4.40;2.40;;;20.90;99.90;;;;;;4954894;29;20035;-71
2022/09/24 12:43:43;;;;;;;4.65;2.25;;;21.00;99.90;;;;;;4954654;29;20390;-70
2022/09/24 12:46:24;;;;;;;12.02;3.63;;;21.00;99.90;;;;;;4954337;29;20054;-71
2022/09/24 12:48:52;;;;;;;19.15;5.75;;;20.90;99.90;;;;;;4954735;29;20378;-70
2022/09/24 12:51:21;;;;;;;93.53;17.25;;;20.90;99.90;;;;;;5029550;28;20042;-70
2022/09/24 12:54:20;;;;;;;49.40;9.10;;;20.90;99.90;;;;;;5035043;28;20530;-70
2022/09/24 12:56:46;;;;;;;160.55;33.60;;;20.90;99.90;;;;;;4964054;28;20049;-72
2022/09/24 12:59:26;;;;;;;54.65;10.48;;;20.90;99.90;;;;;;4971420;28;20030;-74
2022/09/24 13:01:51;;;;;;;3.72;2.15;;;20.80;99.90;;;;;;4954384;28;20034;-70
2022/09/24 13:04:17;;;;;;;13.02;3.88;;;20.80;99.90;;;;;;4954168;28;20806;-70
2022/09/24 13:06:47;;;;;;;18.00;5.20;;;20.90;99.90;;;;;;4953745;28;20082;-68
2022/09/24 13:09:34;;;;;;;5.90;2.67;;;20.80;99.90;;;;;;4953542;28;20588;-69
2022/09/24 13:12:19;;;;;;;2.67;1.70;;;20.70;99.90;;;;;;4953239;28;20123;-71
2022/09/24 13:14:57;;;;;;;8.55;2.80;;;20.70;99.90;;;;;;4973098;28;20035;-67